Time;durP1;ratioP1;P1;durP2;ratioP2;P2;SDS_P1;SDS_P2;PMS_P1;PMS_P2;Temp;Humidity;BMP_temperature;BMP_pressure;BME280_temperature;BME280_humidity;BME280_pressure;Samples;Min_cycle;Max_cycle;Signal;HPM_P1;HPM_P2
2022/10/13 00:02:28;;;;;;;;;;;;;;;7.43;96.95;99857.38;8346102;28;19928;-76
2022/10/13 00:06:30;;;;;;;;;;;;;;;7.42;96.54;99852.22;8374665;28;20471;-75
2022/10/13 00:10:34;;;;;;;;;;;;;;;7.39;96.28;99845.28;8378452;28;19982;-76
2022/10/13 00:14:36;;;;;;;;;;;;;;;7.39;96.33;99852.16;8360825;28;19935;-76
2022/10/13 00:18:37;;;;;;;;;;;;;;;7.39;96.11;99842.69;8375202;28;19951;-76
2022/10/13 00:22:57;;;;;;;;;;;;;;;7.38;95.81;99842.69;8373228;28;19990;-76
2022/10/13 00:26:59;;;;;;;;;;;;;;;7.31;95.64;99846.84;8362135;28;19958;-76
2022/10/13 00:31:01;;;;;;;;;;;;;;;7.31;96.32;99846.84;8358545;28;19928;-76
2022/10/13 00:35:02;;;;;;;;;;;;;;;7.26;95.63;99845.91;8380746;28;20372;-76
2022/10/13 00:39:03;;;;;;;;;;;;;;;7.22;95.41;99849.31;8344770;28;20076;-75
2022/10/13 00:43:13;;;;;;;;;;;;;;;7.13;95.18;99852.59;8374937;28;20648;-76
2022/10/13 00:47:14;;;;;;;;;;;;;;;7.08;95.13;99858.53;8374910;28;19932;-76
2022/10/13 00:51:18;;;;;;;;;;;;;;;7.04;94.85;99849.88;8356848;28;19929;-75
2022/10/13 00:55:21;;;;;;;;;;;;;;;6.95;94.56;99855.72;8345374;28;19932;-76
2022/10/13 00:59:26;;;;;;;;;;;;;;;6.90;94.89;99852.19;8344095;28;19929;-75
2022/10/13 01:03:27;;;;;;;;;;;;;;;6.85;94.71;99853.84;8357100;28;19932;-76
2022/10/13 01:07:29;;;;;;;;;;;;;;;6.81;94.60;99846.00;8367384;28;19928;-76
2022/10/13 01:11:49;;;;;;;;;;;;;;;6.79;95.00;99834.78;8361173;28;20580;-75
2022/10/13 01:15:56;;;;;;;;;;;;;;;6.80;95.33;99841.69;8360543;28;19939;-77
2022/10/13 01:20:09;;;;;;;;;;;;;;;6.75;95.38;99827.84;8373579;28;20335;-76
2022/10/13 01:24:23;;;;;;;;;;;;;;;6.78;95.48;99827.88;8379056;28;19935;-74
2022/10/13 01:28:33;;;;;;;;;;;;;;;6.70;95.09;99832.06;8371161;28;19933;-74
2022/10/13 01:32:54;;;;;;;;;;;;;;;6.72;95.87;99826.06;8375477;28;20378;-75
2022/10/13 01:36:59;;;;;;;;;;;;;;;6.82;96.03;99827.97;8366434;28;19964;-74
2022/10/13 01:41:11;;;;;;;;;;;;;;;6.87;96.46;99816.03;8362139;28;19959;-75
2022/10/13 01:45:15;;;;;;;;;;;;;;;6.97;96.66;99812.72;8375129;28;19989;-76
2022/10/13 01:49:18;;;;;;;;;;;;;;;7.00;96.78;99816.19;8362236;28;20352;-74
2022/10/13 01:53:20;;;;;;;;;;;;;;;7.11;96.85;99806.94;8377372;28;19986;-76
2022/10/13 01:57:34;;;;;;;;;;;;;;;7.17;96.61;99797.56;8362973;28;19939;-74
2022/10/13 02:01:58;;;;;;;;;;;;;;;7.20;96.74;99794.19;8369219;28;19928;-76
2022/10/13 02:06:15;;;;;;;;;;;;;;;7.28;96.31;99788.28;8371567;28;19928;-73
2022/10/13 02:10:27;;;;;;;;;;;;;;;7.37;96.48;99787.56;8381558;28;20396;-75
2022/10/13 02:14:29;;;;;;;;;;;;;;;7.39;96.46;99772.94;8371813;28;20428;-74
2022/10/13 02:18:33;;;;;;;;;;;;;;;7.39;96.31;99765.19;8360444;28;20454;-74
2022/10/13 02:22:37;;;;;;;;;;;;;;;7.39;96.01;99760.03;8377379;28;20608;-76
2022/10/13 02:26:39;;;;;;;;;;;;;;;7.40;95.66;99768.66;8363318;28;20061;-74
2022/10/13 02:30:41;;;;;;;;;;;;;;;7.28;95.54;99748.66;8384283;28;19928;-74
2022/10/13 02:34:42;;;;;;;;;;;;;;;7.26;95.34;99758.09;8372619;28;19924;-76
2022/10/13 02:38:44;;;;;;;;;;;;;;;7.25;95.19;99751.22;8366967;28;20002;-74
2022/10/13 02:42:45;;;;;;;;;;;;;;;7.20;95.22;99743.41;8349034;28;19936;-76
2022/10/13 02:46:47;;;;;;;;;;;;;;;7.18;95.24;99754.53;8379939;28;19929;-74
2022/10/13 02:50:48;;;;;;;;;;;;;;;7.10;94.87;99769.06;8380013;28;20500;-76
2022/10/13 02:54:50;;;;;;;;;;;;;;;7.05;95.31;99763.81;8386561;28;19959;-76
2022/10/13 02:58:51;;;;;;;;;;;;;;;7.05;95.46;99748.34;8394594;28;20476;-76
2022/10/13 03:02:53;;;;;;;;;;;;;;;7.07;95.53;99738.03;8388412;28;19930;-76
2022/10/13 03:06:54;;;;;;;;;;;;;;;7.03;95.49;99741.41;8365926;28;19990;-76
2022/10/13 03:10:56;;;;;;;;;;;;;;;7.01;95.70;99738.81;8383084;28;19982;-76
2022/10/13 03:14:57;;;;;;;;;;;;;;;7.04;95.94;99746.59;8344444;28;19981;-76
2022/10/13 03:18:59;;;;;;;;;;;;;;;7.04;95.86;99745.72;8367385;28;19936;-74
2022/10/13 03:23:00;;;;;;;;;;;;;;;7.04;95.55;99750.91;8377073;28;19935;-75
2022/10/13 03:27:01;;;;;;;;;;;;;;;7.06;95.92;99744.91;8381450;28;20561;-76
2022/10/13 03:31:04;;;;;;;;;;;;;;;7.07;96.00;99756.97;8378468;28;20452;-76
2022/10/13 03:35:05;;;;;;;;;;;;;;;7.07;95.86;99762.13;8367542;28;19932;-73
2022/10/13 03:39:07;;;;;;;;;;;;;;;7.08;96.02;99758.69;8384222;28;19978;-74
2022/10/13 03:43:08;;;;;;;;;;;;;;;7.09;96.09;99764.72;8350878;28;19962;-76
2022/10/13 03:47:09;;;;;;;;;;;;;;;7.06;96.20;99770.72;8355018;28;19928;-75
2022/10/13 03:51:13;;;;;;;;;;;;;;;7.08;96.19;99768.16;8371054;28;20014;-76
2022/10/13 03:55:15;;;;;;;;;;;;;;;7.10;96.37;99764.75;8380062;28;19929;-76
2022/10/13 03:59:17;;;;;;;;;;;;;;;7.14;96.66;99763.09;8359181;28;20757;-75
2022/10/13 04:03:18;;;;;;;;;;;;;;;7.19;96.62;99753.72;8375367;28;19929;-76
2022/10/13 04:07:20;;;;;;;;;;;;;;;7.21;96.65;99752.88;8374891;28;19929;-76
2022/10/13 04:11:21;;;;;;;;;;;;;;;7.20;96.64;99743.41;8362205;28;19928;-76
2022/10/13 04:15:23;;;;;;;;;;;;;;;7.25;96.88;99730.56;8346348;28;19938;-75
2022/10/13 04:19:25;;;;;;;;;;;;;;;7.26;96.75;99727.97;8371981;28;19933;-76
2022/10/13 04:23:26;;;;;;;;;;;;;;;7.27;96.98;99715.94;8372868;28;19928;-76
2022/10/13 04:27:28;;;;;;;;;;;;;;;7.28;96.66;99726.28;8373998;28;19928;-76
2022/10/13 04:31:31;;;;;;;;;;;;;;;7.27;96.78;99719.38;8358796;28;19932;-76
2022/10/13 04:35:32;;;;;;;;;;;;;;;7.32;97.01;99713.41;8336903;28;19990;-77
2022/10/13 04:39:34;;;;;;;;;;;;;;;7.36;96.98;99735.84;8323631;28;19929;-77
2022/10/13 04:43:35;;;;;;;;;;;;;;;7.34;97.37;99741.00;8338928;28;19929;-76
2022/10/13 04:47:38;;;;;;;;;;;;;;;7.42;97.42;99736.81;8327081;28;19936;-77
2022/10/13 04:51:39;;;;;;;;;;;;;;;7.48;97.48;99733.44;8338965;28;19933;-77
2022/10/13 04:55:40;;;;;;;;;;;;;;;7.57;97.62;99749.09;8342275;28;20680;-77
2022/10/13 04:59:42;;;;;;;;;;;;;;;7.62;97.81;99743.97;8340459;28;20480;-75
2022/10/13 05:03:43;;;;;;;;;;;;;;;7.71;97.54;99737.19;8319875;28;20350;-76
2022/10/13 05:07:45;;;;;;;;;;;;;;;7.77;97.04;99721.78;8340968;28;19960;-76
2022/10/13 05:11:46;;;;;;;;;;;;;;;7.82;97.48;99720.09;8337639;28;19933;-77
2022/10/13 05:15:47;;;;;;;;;;;;;;;7.86;97.53;99726.16;8305000;28;19929;-77
2022/10/13 05:19:49;;;;;;;;;;;;;;;7.89;97.45;99733.94;8324207;28;19933;-75
2022/10/13 05:23:54;;;;;;;;;;;;;;;7.96;97.27;99722.84;8310902;28;19959;-76
2022/10/13 05:27:56;;;;;;;;;;;;;;;7.98;97.17;99705.63;8336973;28;19937;-74
2022/10/13 05:31:58;;;;;;;;;;;;;;;8.06;97.13;99705.69;8306841;28;20028;-74
2022/10/13 05:36:18;;;;;;;;;;;;;;;8.08;96.48;99711.78;8362555;28;20355;-74
2022/10/13 05:40:20;;;;;;;;;;;;;;;8.07;96.74;99700.53;8375795;28;19985;-76
2022/10/13 05:44:21;;;;;;;;;;;;;;;8.09;97.14;99698.88;8356819;28;19928;-74
2022/10/13 05:48:22;;;;;;;;;;;;;;;8.11;96.97;99704.06;8366785;28;20741;-73
2022/10/13 05:52:24;;;;;;;;;;;;;;;8.12;97.26;99696.31;8376279;28;20778;-74
2022/10/13 05:56:29;;;;;;;;;;;;;;;8.15;97.00;99698.06;8356174;28;20320;-74
2022/10/13 06:00:30;;;;;;;;;;;;;;;8.15;96.72;99705.81;8354773;28;20242;-75
2022/10/13 06:04:38;;;;;;;;;;;;;;;8.19;96.91;99705.84;8368778;28;19929;-74
2022/10/13 06:08:41;;;;;;;;;;;;;;;8.22;97.35;99698.97;8368912;28;19932;-76
2022/10/13 06:12:42;;;;;;;;;;;;;;;8.27;97.30;99699.91;8359585;28;20357;-75
2022/10/13 06:16:44;;;;;;;;;;;;;;;8.34;97.48;99705.19;8370198;28;19971;-73
2022/10/13 06:20:45;;;;;;;;;;;;;;;8.41;97.45;99711.25;8372841;28;19928;-74
2022/10/13 06:24:47;;;;;;;;;;;;;;;8.43;97.48;99712.13;8378016;28;19987;-75
2022/10/13 06:28:48;;;;;;;;;;;;;;;8.45;97.74;99703.56;8361341;28;19928;-76
2022/10/13 06:32:56;;;;;;;;;;;;;;;8.52;97.88;99699.31;8357667;28;19932;-76
2022/10/13 06:36:57;;;;;;;;;;;;;;;8.59;97.95;99690.72;8376446;28;19932;-74
2022/10/13 06:41:00;;;;;;;;;;;;;;;8.63;98.04;99697.69;8354472;28;20264;-73
2022/10/13 06:45:02;;;;;;;;;;;;;;;8.67;97.32;99698.56;8338026;28;19979;-73
2022/10/13 06:49:03;;;;;;;;;;;;;;;8.71;97.64;99688.25;8370626;28;19994;-73
2022/10/13 06:53:04;;;;;;;;;;;;;;;8.74;98.16;99674.44;8363423;28;20368;-74
2022/10/13 06:57:06;;;;;;;;;;;;;;;8.80;97.85;99679.69;8367998;28;19928;-74
2022/10/13 07:01:10;;;;;;;;;;;;;;;8.85;97.99;99688.34;8343691;28;19933;-74
2022/10/13 07:05:12;;;;;;;;;;;;;;;8.93;97.55;99676.31;8339163;28;20591;-74
2022/10/13 07:09:13;;;;;;;;;;;;;;;9.01;98.05;99682.44;8349599;28;20503;-74
2022/10/13 07:13:14;;;;;;;;;;;;;;;9.08;97.87;99670.38;8347592;28;19963;-73
2022/10/13 07:17:16;;;;;;;;;;;;;;;9.17;97.54;99683.41;8364366;28;19939;-76
2022/10/13 07:21:18;;;;;;;;;;;;;;;9.24;97.53;99692.06;8359426;28;19929;-73
2022/10/13 07:25:20;;;;;;;;;;;;;;;9.33;98.07;99673.94;8365772;28;20251;-73
2022/10/13 07:29:21;;;;;;;;;;;;;;;9.49;98.12;99675.75;8363522;28;19955;-73
2022/10/13 07:33:22;;;;;;;;;;;;;;;9.61;98.26;99685.31;8359515;28;19993;-73
2022/10/13 07:37:25;;;;;;;;;;;;;;;9.74;97.77;99683.66;8352660;28;19959;-73
2022/10/13 07:41:26;;;;;;;;;;;;;;;9.86;97.49;99687.13;8345031;28;19928;-73
2022/10/13 07:45:28;;;;;;;;;;;;;;;9.99;97.00;99688.06;8339157;28;19936;-74
2022/10/13 07:49:29;;;;;;;;;;;;;;;10.10;96.75;99675.13;8360950;28;19936;-74
2022/10/13 07:53:30;;;;;;;;;;;;;;;10.20;96.19;99684.63;8370954;28;20696;-75
2022/10/13 07:57:32;;;;;;;;;;;;;;;10.29;95.92;99688.16;8356315;28;19935;-74
2022/10/13 08:01:33;;;;;;;;;;;;;;;10.36;95.41;99690.75;8356323;28;19928;-74
2022/10/13 08:05:38;;;;;;;;;;;;;;;10.37;96.12;99684.69;8340224;28;19987;-74
2022/10/13 08:09:39;;;;;;;;;;;;;;;10.51;96.35;99686.44;8360955;28;19974;-72
2022/10/13 08:13:40;;;;;;;;;;;;;;;10.63;95.68;99687.31;8362925;28;19990;-77
2022/10/13 08:17:42;;;;;;;;;;;;;;;10.79;95.61;99676.94;8366133;28;19986;-74
2022/10/13 08:21:45;;;;;;;;;;;;;;;10.96;95.17;99679.50;8366110;28;19944;-74
2022/10/13 08:25:58;;;;;;;;;;;;;;;11.09;93.96;99686.41;8355089;28;20665;-74
2022/10/13 08:30:00;;;;;;;;;;;;;;;11.23;93.47;99672.50;8365523;28;20512;-74
2022/10/13 08:34:02;;;;;;;;;;;;;;;11.36;93.33;99671.63;8371449;28;20364;-74
2022/10/13 08:38:03;;;;;;;;;;;;;;;11.46;91.98;99663.75;8374138;28;19928;-74
2022/10/13 08:42:18;;;;;;;;;;;;;;;11.56;91.96;99659.41;8372776;28;19929;-74
2022/10/13 08:46:43;;;;;;;;;;;;;;;11.57;91.67;99655.94;8370135;28;19928;-74
2022/10/13 08:50:46;;;;;;;;;;;;;;;11.57;90.74;99655.94;8373043;28;19928;-74
2022/10/13 08:54:48;;;;;;;;;;;;;;;11.56;90.94;99668.94;8345249;28;19925;-75
2022/10/13 08:58:50;;;;;;;;;;;;;;;11.55;91.17;99662.03;8367509;28;20906;-75
2022/10/13 09:02:51;;;;;;;;;;;;;;;11.58;91.09;99668.06;8353954;28;19928;-75
2022/10/13 09:06:55;;;;;;;;;;;;;;;11.60;91.54;99665.44;8372943;28;20568;-75
2022/10/13 09:10:56;;;;;;;;;;;;;;;11.68;91.38;99667.16;8360399;28;19956;-74
2022/10/13 09:15:00;;;;;;;;;;;;;;;11.79;90.91;99673.19;8358886;28;19932;-75
2022/10/13 09:19:20;;;;;;;;;;;;;;;11.85;91.54;99680.13;8372433;28;20086;-74
2022/10/13 09:23:22;;;;;;;;;;;;;;;11.88;90.69;99671.44;8372207;28;19997;-75
2022/10/13 09:27:23;;;;;;;;;;;;;;;11.97;90.99;99681.78;8355493;28;19929;-75
2022/10/13 09:31:26;;;;;;;;;;;;;;;12.08;90.99;99677.41;8348879;28;20733;-75
2022/10/13 09:35:27;;;;;;;;;;;;;;;12.16;91.24;99691.22;8354278;28;19929;-74
2022/10/13 09:39:30;;;;;;;;;;;;;;;12.24;90.99;99671.22;8323000;28;19932;-75
2022/10/13 09:43:40;;;;;;;;;;;;;;;12.32;90.99;99671.16;8341693;28;19939;-75
2022/10/13 09:47:50;;;;;;;;;;;;;;;12.43;89.89;99660.69;8355089;28;19935;-74
2022/10/13 09:51:57;;;;;;;;;;;;;;;12.53;89.28;99671.00;8345382;28;20613;-74
2022/10/13 09:56:18;;;;;;;;;;;;;;;12.67;88.97;99679.56;8322127;28;19936;-75
2022/10/13 10:00:23;;;;;;;;;;;;;;;12.81;89.61;99686.41;8350214;28;19929;-74
2022/10/13 10:04:28;;;;;;;;;;;;;;;12.87;89.20;99668.09;8336935;28;19929;-75
2022/10/13 10:08:40;;;;;;;;;;;;;;;12.94;89.45;99661.97;8322559;28;19935;-75
2022/10/13 10:13:01;;;;;;;;;;;;;;;13.04;89.06;99658.38;8342031;28;19929;-74
2022/10/13 10:17:21;;;;;;;;;;;;;;;13.11;87.70;99652.25;8332413;28;20007;-75
2022/10/13 10:21:29;;;;;;;;;;;;;;;13.28;87.69;99642.53;8339647;28;20028;-75
2022/10/13 10:25:45;;;;;;;;;;;;;;;13.39;86.84;99637.16;8353008;28;19986;-77
2022/10/13 10:30:00;;;;;;;;;;;;;;;13.46;86.82;99635.34;8302081;28;20003;-77
2022/10/13 10:34:09;;;;;;;;;;;;;;;13.48;85.94;99636.22;8327338;28;19979;-76
2022/10/13 10:38:34;;;;;;;;;;;;;;;13.52;85.85;99637.88;8369995;28;19935;-75
2022/10/13 10:42:55;;;;;;;;;;;;;;;13.71;85.84;99636.78;8370477;28;20930;-75
2022/10/13 10:47:03;;;;;;;;;;;;;;;13.95;85.40;99635.56;8351873;28;20062;-76
2022/10/13 10:51:08;;;;;;;;;;;;;;;14.07;84.57;99639.75;8363607;28;19928;-76
2022/10/13 10:55:17;;;;;;;;;;;;;;;14.12;84.38;99619.66;8331477;28;19963;-76
2022/10/13 10:59:21;;;;;;;;;;;;;;;14.23;84.23;99620.38;8360384;28;19932;-76
2022/10/13 11:03:46;;;;;;;;;;;;;;;14.35;84.28;99614.91;8353149;28;19928;-76
2022/10/13 11:07:51;;;;;;;;;;;;;;;14.40;84.30;99617.47;8363841;28;19950;-76
2022/10/13 11:11:52;;;;;;;;;;;;;;;14.44;83.88;99614.81;8370852;28;20292;-76
2022/10/13 11:15:54;;;;;;;;;;;;;;;14.51;84.18;99613.81;8357590;28;19933;-76
2022/10/13 11:19:56;;;;;;;;;;;;;;;14.62;84.50;99597.97;8352252;28;20373;-76
2022/10/13 11:23:58;;;;;;;;;;;;;;;14.71;83.87;99589.09;8377895;28;19982;-76
2022/10/13 11:28:26;;;;;;;;;;;;;;;14.77;83.56;99591.63;8355659;28;20344;-76
2022/10/13 11:32:40;;;;;;;;;;;;;;;14.81;83.15;99583.69;8360659;28;20261;-76
2022/10/13 11:36:47;;;;;;;;;;;;;;;14.84;83.41;99582.75;8373485;28;19929;-76
2022/10/13 11:41:14;;;;;;;;;;;;;;;14.90;83.19;99572.19;8366825;28;19933;-74
2022/10/13 11:45:28;;;;;;;;;;;;;;;15.04;83.12;99564.94;8351279;28;19928;-76
2022/10/13 11:49:38;;;;;;;;;;;;;;;15.22;82.43;99541.91;8355793;28;20275;-75
2022/10/13 11:53:49;;;;;;;;;;;;;;;15.31;81.85;99539.97;8350537;28;19928;-76
2022/10/13 11:57:50;;;;;;;;;;;;;;;15.41;82.14;99535.38;8346101;28;19928;-76
2022/10/13 12:02:10;;;;;;;;;;;;;;;15.52;82.35;99524.69;8351396;28;19929;-76
2022/10/13 12:06:20;;;;;;;;;;;;;;;15.59;82.08;99516.69;8352863;28;19939;-75
2022/10/13 12:10:32;;;;;;;;;;;;;;;15.64;81.54;99516.63;8366159;28;19933;-74
2022/10/13 12:14:39;;;;;;;;;;;;;;;15.68;81.55;99519.13;8357955;28;19932;-74
2022/10/13 12:18:40;;;;;;;;;;;;;;;15.81;81.52;99521.47;8338935;28;19963;-75
2022/10/13 12:22:48;;;;;;;;;;;;;;;15.89;81.73;99512.50;8352405;28;20027;-76
2022/10/13 12:26:50;;;;;;;;;;;;;;;15.94;80.79;99512.38;8342504;28;20361;-76
2022/10/13 12:30:53;;;;;;;;;;;;;;;16.00;80.55;99504.41;8365368;28;19981;-76
2022/10/13 12:34:55;;;;;;;;;;;;;;;15.98;80.08;99506.22;8352753;28;19998;-76
2022/10/13 12:39:01;;;;;;;;;;;;;;;16.01;80.25;99504.38;8358016;28;20161;-76
2022/10/13 12:43:04;;;;;;;;;;;;;;;16.01;79.98;99509.59;8368606;28;19928;-76
2022/10/13 12:47:25;;;;;;;;;;;;;;;16.08;80.77;99517.31;8354705;28;19940;-76
2022/10/13 12:51:27;;;;;;;;;;;;;;;15.95;80.39;99517.59;8349563;28;19928;-76
2022/10/13 12:55:28;;;;;;;;;;;;;;;15.92;80.95;99508.94;8368693;28;20035;-76
2022/10/13 12:59:30;;;;;;;;;;;;;;;15.82;81.45;99516.19;8341589;28;19928;-76
2022/10/13 13:03:32;;;;;;;;;;;;;;;15.68;81.83;99516.50;8351986;28;19929;-76
2022/10/13 13:07:35;;;;;;;;;;;;;;;15.62;82.85;99513.16;8353465;28;19925;-76
2022/10/13 13:11:37;;;;;;;;;;;;;;;15.63;83.87;99510.53;8358380;28;20440;-76
2022/10/13 13:15:40;;;;;;;;;;;;;;;15.69;84.22;99510.38;8359785;28;20727;-76
2022/10/13 13:19:43;;;;;;;;;;;;;;;15.73;84.22;99511.16;8367243;28;19932;-76
2022/10/13 13:23:46;;;;;;;;;;;;;;;15.79;85.76;99515.38;8341999;28;20633;-76
2022/10/13 13:27:54;;;;;;;;;;;;;;;15.74;86.10;99506.78;8366643;28;19932;-76
2022/10/13 13:31:55;;;;;;;;;;;;;;;15.64;86.39;99514.00;8369441;28;19978;-77
2022/10/13 13:35:57;;;;;;;;;;;;;;;15.57;86.50;99513.22;8368674;28;20255;-77
2022/10/13 13:39:58;;;;;;;;;;;;;;;15.55;86.93;99503.69;8359942;28;19998;-77
2022/10/13 13:43:59;;;;;;;;;;;;;;;15.60;87.44;99497.47;8360251;28;19985;-77
2022/10/13 13:48:01;;;;;;;;;;;;;;;15.70;87.21;99501.63;8375024;28;20361;-77
2022/10/13 13:52:02;;;;;;;;;;;;;;;15.74;87.20;99504.16;8336800;28;19932;-77
2022/10/13 13:56:04;;;;;;;;;;;;;;;15.81;87.06;99505.75;8354183;28;19929;-77
2022/10/13 14:00:05;;;;;;;;;;;;;;;15.87;86.86;99498.59;8348661;28;19929;-77
2022/10/13 14:04:07;;;;;;;;;;;;;;;15.93;86.49;99497.56;8358249;28;19951;-77
2022/10/13 14:08:08;;;;;;;;;;;;;;;15.99;86.75;99489.59;8361644;28;19924;-77
2022/10/13 14:12:10;;;;;;;;;;;;;;;16.00;86.28;99479.06;8370402;28;19986;-77
2022/10/13 14:16:14;;;;;;;;;;;;;;;15.95;84.52;99474.81;8368331;28;19981;-77
2022/10/13 14:20:16;;;;;;;;;;;;;;;15.90;84.60;99482.81;8363732;28;19928;-77
2022/10/13 14:24:17;;;;;;;;;;;;;;;15.82;84.47;99482.16;8378634;28;19933;-77
2022/10/13 14:28:19;;;;;;;;;;;;;;;15.71;84.62;99485.00;8339679;28;19943;-77
2022/10/13 14:32:20;;;;;;;;;;;;;;;15.61;84.67;99480.88;8342896;28;19993;-77
2022/10/13 14:36:22;;;;;;;;;;;;;;;15.52;85.43;99477.59;8368657;28;19976;-77
2022/10/13 14:40:24;;;;;;;;;;;;;;;15.44;85.82;99480.41;8348674;28;20025;-77
2022/10/13 14:44:25;;;;;;;;;;;;;;;15.42;86.71;99476.94;8365172;28;19982;-76
2022/10/13 14:48:26;;;;;;;;;;;;;;;15.41;87.71;99480.44;8353765;28;19928;-76
2022/10/13 14:52:28;;;;;;;;;;;;;;;15.33;88.08;99482.38;8385384;28;19928;-78
2022/10/13 14:56:29;;;;;;;;;;;;;;;15.25;88.63;99477.31;8383429;28;19936;-77
2022/10/13 15:00:30;;;;;;;;;;;;;;;15.22;89.21;99480.00;8366130;28;19994;-77
2022/10/13 15:04:31;;;;;;;;;;;;;;;15.18;89.51;99478.34;8385079;28;19939;-77
2022/10/13 15:08:33;;;;;;;;;;;;;;;15.20;89.85;99475.69;8383816;28;20394;-77
2022/10/13 15:12:35;;;;;;;;;;;;;;;15.14;90.72;99471.47;8384150;28;19935;-77
2022/10/13 15:16:36;;;;;;;;;;;;;;;15.10;91.22;99465.44;8362288;28;19929;-77
2022/10/13 15:20:38;;;;;;;;;;;;;;;15.07;91.80;99469.84;8363449;28;19936;-77
2022/10/13 15:24:39;;;;;;;;;;;;;;;15.05;92.42;99462.03;8364374;28;19989;-76
2022/10/13 15:28:45;;;;;;;;;;;;;;;15.04;92.78;99459.47;8381866;28;19997;-77
2022/10/13 15:32:47;;;;;;;;;;;;;;;15.03;93.33;99462.97;8355340;28;19932;-77
2022/10/13 15:36:48;;;;;;;;;;;;;;;14.98;93.83;99460.47;8330894;28;19962;-77
2022/10/13 15:40:50;;;;;;;;;;;;;;;14.93;94.24;99454.47;8324397;28;19987;-77
2022/10/13 15:44:51;;;;;;;;;;;;;;;14.90;94.55;99451.03;8346434;28;20387;-77
2022/10/13 15:49:11;;;;;;;;;;;;;;;14.87;94.83;99446.75;8313505;28;19929;-77
2022/10/13 15:53:12;;;;;;;;;;;;;;;14.81;95.46;99452.97;8349149;28;20508;-77
2022/10/13 15:57:14;;;;;;;;;;;;;;;14.74;95.50;99448.78;8344808;28;19929;-77
2022/10/13 16:01:15;;;;;;;;;;;;;;;14.72;95.81;99452.28;8340209;28;19928;-77
2022/10/13 16:05:17;;;;;;;;;;;;;;;14.66;95.88;99445.44;8325300;28;19964;-77
2022/10/13 16:09:18;;;;;;;;;;;;;;;14.62;96.00;99441.16;8330592;28;19939;-77
2022/10/13 16:13:19;;;;;;;;;;;;;;;14.56;96.30;99446.53;8327182;28;19933;-77
2022/10/13 16:17:21;;;;;;;;;;;;;;;14.52;96.76;99448.31;8332256;28;20818;-76
2022/10/13 16:21:24;;;;;;;;;;;;;;;14.49;96.92;99450.13;8344356;28;19994;-76
2022/10/13 16:25:26;;;;;;;;;;;;;;;14.45;97.30;99445.84;8300263;28;19937;-76
2022/10/13 16:29:27;;;;;;;;;;;;;;;14.41;97.85;99437.19;8342261;28;20585;-76
2022/10/13 16:33:28;;;;;;;;;;;;;;;14.39;97.96;99446.81;8343395;28;20493;-76
2022/10/13 16:37:29;;;;;;;;;;;;;;;14.35;98.49;99439.03;8359743;28;19992;-76
2022/10/13 16:41:31;;;;;;;;;;;;;;;14.35;98.54;99436.44;8374431;28;19932;-76
2022/10/13 16:45:32;;;;;;;;;;;;;;;14.35;98.74;99444.25;8366381;28;20323;-76
2022/10/13 16:49:54;;;;;;;;;;;;;;;14.28;98.99;99442.66;8346730;28;19981;-76
2022/10/13 16:53:56;;;;;;;;;;;;;;;14.25;99.24;99450.56;8353143;28;20655;-76
2022/10/13 16:58:04;;;;;;;;;;;;;;;14.23;99.32;99453.22;8355647;28;19928;-76
2022/10/13 17:02:05;;;;;;;;;;;;;;;14.21;99.35;99455.84;8362785;28;20338;-76
2022/10/13 17:06:07;;;;;;;;;;;;;;;14.19;99.55;99457.63;8368293;28;19938;-76
2022/10/13 17:10:09;;;;;;;;;;;;;;;14.19;100.00;99449.81;8374558;28;19990;-76
2022/10/13 17:14:10;;;;;;;;;;;;;;;14.16;100.00;99455.06;8321678;28;19986;-76
2022/10/13 17:18:11;;;;;;;;;;;;;;;14.12;100.00;99470.81;8332258;28;19937;-75
2022/10/13 17:22:13;;;;;;;;;;;;;;;14.12;100.00;99469.06;8333602;28;19928;-75
2022/10/13 17:26:15;;;;;;;;;;;;;;;14.11;100.00;99469.09;8349235;28;19929;-76
2022/10/13 17:30:17;;;;;;;;;;;;;;;14.11;100.00;99479.53;8354027;28;19932;-75
2022/10/13 17:34:18;;;;;;;;;;;;;;;14.11;100.00;99479.53;8372982;28;20499;-77
2022/10/13 17:38:19;;;;;;;;;;;;;;;14.09;100.00;99476.94;8332569;28;19998;-75
2022/10/13 17:42:21;;;;;;;;;;;;;;;14.06;100.00;99469.19;8340927;28;20393;-76
2022/10/13 17:46:24;;;;;;;;;;;;;;;14.05;100.00;99467.44;8355899;28;20424;-76
2022/10/13 17:50:40;;;;;;;;;;;;;;;14.01;100.00;99473.63;8357942;28;20016;-76
2022/10/13 17:54:42;;;;;;;;;;;;;;;13.98;100.00;99478.00;8355605;28;20165;-76
2022/10/13 17:58:44;;;;;;;;;;;;;;;13.96;100.00;99480.66;8341623;28;19929;-76
2022/10/13 18:02:45;;;;;;;;;;;;;;;13.94;100.00;99476.34;8357697;28;19929;-76
2022/10/13 18:06:47;;;;;;;;;;;;;;;13.93;100.00;99483.31;8356051;28;19928;-76
2022/10/13 18:10:49;;;;;;;;;;;;;;;13.91;100.00;99482.47;8355350;28;19939;-76
2022/10/13 18:15:08;;;;;;;;;;;;;;;13.90;100.00;99485.97;8350600;28;19929;-76
2022/10/13 18:19:10;;;;;;;;;;;;;;;13.88;100.00;99480.78;8361824;28;20327;-76
2022/10/13 18:23:11;;;;;;;;;;;;;;;13.87;100.00;99484.28;8354591;28;19946;-75
2022/10/13 18:27:12;;;;;;;;;;;;;;;13.84;100.00;99475.66;8337774;28;19928;-75
2022/10/13 18:31:17;;;;;;;;;;;;;;;13.81;100.00;99481.75;8342862;28;20294;-75
2022/10/13 18:35:18;;;;;;;;;;;;;;;13.78;100.00;99478.34;8351204;28;20023;-76
2022/10/13 18:39:21;;;;;;;;;;;;;;;13.76;100.00;99477.50;8320951;28;19928;-76
2022/10/13 18:43:22;;;;;;;;;;;;;;;13.72;100.00;99481.06;8319570;28;19936;-76
2022/10/13 18:47:24;;;;;;;;;;;;;;;13.68;100.00;99482.84;8321311;28;19959;-76
2022/10/13 18:51:27;;;;;;;;;;;;;;;13.61;100.00;99492.50;8320087;28;20258;-76
2022/10/13 18:55:36;;;;;;;;;;;;;;;13.59;100.00;99489.06;8335418;28;20017;-76
2022/10/13 18:59:37;;;;;;;;;;;;;;;13.59;100.00;99490.81;8321841;28;19986;-76
2022/10/13 19:03:39;;;;;;;;;;;;;;;13.54;100.00;99487.41;8335878;28;19933;-76
2022/10/13 19:07:41;;;;;;;;;;;;;;;13.49;100.00;99492.72;8320620;28;19928;-76
2022/10/13 19:11:42;;;;;;;;;;;;;;;13.43;100.00;99507.56;8324097;28;19991;-76
2022/10/13 19:15:43;;;;;;;;;;;;;;;13.37;100.00;99498.09;8298320;28;19987;-76
2022/10/13 19:19:45;;;;;;;;;;;;;;;13.34;100.00;99497.28;8333305;28;19959;-76
2022/10/13 19:23:47;;;;;;;;;;;;;;;13.31;100.00;99498.19;8334938;28;19928;-76
2022/10/13 19:27:48;;;;;;;;;;;;;;;13.29;100.00;99500.81;8303494;28;19929;-76
2022/10/13 19:31:50;;;;;;;;;;;;;;;13.30;100.00;99499.06;8332382;28;19929;-76
2022/10/13 19:35:52;;;;;;;;;;;;;;;13.27;100.00;99484.31;8341839;28;21348;-76
2022/10/13 19:39:54;;;;;;;;;;;;;;;13.28;100.00;99498.19;8332311;28;19936;-76
2022/10/13 19:43:56;;;;;;;;;;;;;;;13.25;100.00;99491.28;8346176;28;20305;-76
2022/10/13 19:47:58;;;;;;;;;;;;;;;13.23;100.00;99492.19;8322061;28;19994;-76
2022/10/13 19:51:59;;;;;;;;;;;;;;;13.19;100.00;99473.13;8340538;28;20343;-76
2022/10/13 19:56:00;;;;;;;;;;;;;;;13.14;100.00;99487.09;8336894;28;20789;-76
2022/10/13 20:00:02;;;;;;;;;;;;;;;13.10;100.00;99480.16;8315525;28;20077;-76
2022/10/13 20:04:04;;;;;;;;;;;;;;;13.06;100.00;99474.13;8322278;28;20015;-76
2022/10/13 20:08:07;;;;;;;;;;;;;;;13.04;100.00;99483.72;8340441;28;20031;-76
2022/10/13 20:12:08;;;;;;;;;;;;;;;12.96;100.00;99488.19;8341339;28;19938;-76
2022/10/13 20:16:12;;;;;;;;;;;;;;;12.89;100.00;99487.38;8318912;28;20358;-76
2022/10/13 20:20:13;;;;;;;;;;;;;;;12.83;100.00;99484.84;8323066;28;19929;-76
2022/10/13 20:24:22;;;;;;;;;;;;;;;12.78;100.00;99484.06;8343214;28;19929;-75
2022/10/13 20:28:23;;;;;;;;;;;;;;;12.75;100.00;99491.91;8324086;28;20016;-75
2022/10/13 20:32:25;;;;;;;;;;;;;;;12.70;100.00;99494.56;8337968;28;19928;-75
2022/10/13 20:36:27;;;;;;;;;;;;;;;12.66;100.00;99485.06;8331377;28;19986;-75
2022/10/13 20:40:28;;;;;;;;;;;;;;;12.63;100.00;99490.31;8346832;28;19928;-76
2022/10/13 20:44:30;;;;;;;;;;;;;;;12.60;100.00;99495.56;8360872;28;19935;-75
2022/10/13 20:48:32;;;;;;;;;;;;;;;12.59;100.00;99499.03;8369656;28;19933;-76
2022/10/13 20:52:53;;;;;;;;;;;;;;;12.59;100.00;99495.56;8372255;28;19932;-75
2022/10/13 20:56:55;;;;;;;;;;;;;;;12.56;100.00;99498.19;8374922;28;19932;-77
2022/10/13 21:00:56;;;;;;;;;;;;;;;12.55;100.00;99492.13;8369803;28;19995;-76
2022/10/13 21:04:57;;;;;;;;;;;;;;;12.58;100.00;99499.06;8369003;28;19935;-76
2022/10/13 21:08:59;;;;;;;;;;;;;;;12.61;100.00;99491.19;8353443;28;19955;-76
2022/10/13 21:13:00;;;;;;;;;;;;;;;12.61;100.00;99491.19;8357239;28;19935;-76